Time;durP1;ratioP1;P1;durP2;ratioP2;P2;SDS_P1;SDS_P2;PMS_P1;PMS_P2;Temp;Humidity;BMP_temperature;BMP_pressure;BME280_temperature;BME280_humidity;BME280_pressure;Samples;Min_cycle;Max_cycle;Signal;HPM_P1;HPM_P2
2023/01/30 00:09:16;;;;;;;134.10;53.30;;;;;;;3.08;100.00;99716.98;682337;1263;139021;-79
2023/01/30 00:24:19;;;;;;;69.60;32.90;;;;;;;3.07;100.00;99671.23;682311;1260;139677;-79
2023/01/30 00:39:23;;;;;;;40.50;19.50;;;;;;;3.04;100.00;99634.11;682459;1260;139441;-79
2023/01/30 00:54:26;;;;;;;37.40;16.70;;;;;;;3.00;100.00;99610.52;682328;1264;139874;-79
2023/01/30 01:09:29;;;;;;;36.80;18.00;;;;;;;2.93;100.00;99577.81;682307;1260;140023;-80
2023/01/30 01:24:33;;;;;;;34.80;18.40;;;;;;;2.98;100.00;99546.43;682415;1263;139919;-79
2023/01/30 01:55:01;;;;;;;28.90;15.80;;;;;;;2.99;100.00;99486.77;682544;1261;139295;-80
2023/01/30 02:10:12;;;;;;;28.40;15.70;;;;;;;2.94;100.00;99459.45;682615;1263;141072;-80
2023/01/30 02:25:44;;;;;;;31.90;16.70;;;;;;;2.86;100.00;99398.52;682195;1263;139683;-80
2023/01/30 02:41:19;;;;;;;27.20;15.70;;;;;;;2.88;100.00;99340.52;682464;1265;140980;-80
2023/01/30 02:56:23;;;;;;;30.70;16.70;;;;;;;2.87;100.00;99301.02;682315;1263;139434;-79
2023/01/30 03:11:44;;;;;;;33.70;18.10;;;;;;;2.88;100.00;99284.36;682728;1263;139944;-79
2023/01/30 03:27:00;;;;;;;31.00;16.10;;;;;;;2.91;100.00;99244.61;682162;1260;140274;-80
2023/01/30 03:42:03;;;;;;;29.40;16.20;;;;;;;2.86;100.00;99210.48;682228;1264;139728;-79
2023/01/30 03:57:07;;;;;;;32.60;16.10;;;;;;;2.90;100.00;99181.69;682376;1266;139694;-79
2023/01/30 04:12:11;;;;;;;27.40;13.90;;;;;;;2.85;100.00;99181.63;682296;1260;139165;-79
2023/01/30 04:27:21;;;;;;;37.10;17.60;;;;;;;2.69;100.00;99169.18;682237;1265;140441;-78
2023/01/30 04:42:47;;;;;;;31.00;16.30;;;;;;;2.59;100.00;99108.64;682197;1266;139576;-78
2023/01/30 04:58:09;;;;;;;28.70;15.40;;;;;;;2.62;100.00;99061.48;682516;1263;139380;-79
2023/01/30 05:13:12;;;;;;;37.10;17.10;;;;;;;2.58;100.00;99014.81;682187;1265;140036;-78
2023/01/30 05:28:16;;;;;;;30.20;14.90;;;;;;;2.44;100.00;99006.13;682507;1265;139882;-78
2023/01/30 05:43:19;;;;;;;36.20;18.60;;;;;;;2.34;100.00;98952.20;682152;1265;139498;-79
2023/01/30 05:58:23;;;;;;;35.60;18.30;;;;;;;2.37;100.00;98929.68;682286;1263;139576;-78
2023/01/30 06:13:26;;;;;;;40.40;18.90;;;;;;;2.33;100.00;98918.78;682329;1272;139756;-78
2023/01/30 06:28:29;;;;;;;118.30;44.70;;;;;;;2.35;100.00;98893.48;682417;1263;139555;-78
2023/01/30 06:43:33;;;;;;;78.70;34.80;;;;;;;2.33;100.00;98875.86;682325;1263;140225;-78
2023/01/30 06:58:36;;;;;;;42.20;22.20;;;;;;;2.31;99.90;98855.62;682568;1263;139119;-78
2023/01/30 07:13:39;;;;;;;31.50;15.70;;;;;;;2.38;99.70;98832.45;682264;1264;139640;-78
2023/01/30 07:28:42;;;;;;;34.90;16.20;;;;;;;2.45;99.24;98798.16;682318;1263;139466;-77
2023/01/30 07:43:47;;;;;;;43.20;18.30;;;;;;;2.40;100.00;98782.83;682180;1263;139342;-79
2023/01/30 07:58:51;;;;;;;32.40;15.50;;;;;;;2.25;100.00;98779.30;682559;1263;140385;-80
2023/01/30 08:13:54;;;;;;;48.30;25.50;;;;;;;2.18;100.00;98762.30;682201;1260;139961;-81
2023/01/30 08:28:58;;;;;;;28.50;16.00;;;;;;;2.19;100.00;98753.91;682364;1260;140377;-80
2023/01/30 08:44:01;;;;;;;35.70;17.90;;;;;;;2.29;100.00;98731.72;682222;1266;140520;-79
2023/01/30 08:59:04;;;;;;;30.80;17.10;;;;;;;2.34;100.00;98721.14;682557;1260;140102;-80
2023/01/30 09:14:09;;;;;;;28.00;15.90;;;;;;;2.35;100.00;98705.40;682229;1260;139669;-79
2023/01/30 09:29:13;;;;;;;24.40;13.20;;;;;;;2.46;100.00;98697.61;682233;1261;166652;-77
2023/01/30 09:44:41;;;;;;;32.00;17.20;;;;;;;2.50;100.00;98682.10;682313;1261;140754;-78
2023/01/30 10:00:07;;;;;;;33.70;17.50;;;;;;;2.69;100.00;98656.63;682279;1260;138996;-78
2023/01/30 10:16:01;;;;;;;38.50;18.50;;;;;;;2.79;100.00;98647.84;682207;1260;139987;-79
2023/01/30 10:31:09;;;;;;;138.20;56.70;;;;;;;3.06;100.00;98637.69;681760;1267;140099;-81
2023/01/30 10:46:22;;;;;;;57.40;25.70;;;;;;;3.34;100.00;98629.34;682099;1264;139376;-78
2023/01/30 11:01:47;;;;;;;42.10;19.80;;;;;;;3.54;100.00;98626.12;682087;1263;139867;-79
2023/01/30 11:16:53;;;;;;;31.70;16.00;;;;;;;3.64;100.00;98607.10;682158;1263;139094;-78
2023/01/30 11:32:10;;;;;;;27.70;15.10;;;;;;;3.83;100.00;98583.52;681979;1260;139614;-80
2023/01/30 11:47:26;;;;;;;104.20;44.70;;;;;;;3.91;100.00;98591.10;682133;1264;139337;-80
2023/01/30 12:28:45;;;;;;;29.80;14.30;;;;;;;3.78;100.00;98530.27;659407;1289;563661;-82
2023/01/30 12:44:14;;;;;;;32.60;15.70;;;;;;;4.28;100.00;98508.09;667339;1272;138589;-82
2023/01/30 12:59:34;;;;;;;29.10;15.20;;;;;;;4.35;100.00;98509.73;667248;1278;138231;-82
2023/01/30 13:14:59;;;;;;;28.60;13.90;;;;;;;4.45;100.00;98498.58;668297;1287;139452;-81
2023/01/30 13:30:09;;;;;;;19.70;10.90;;;;;;;4.56;100.00;98493.80;666100;1276;138699;-80
2023/01/30 13:45:20;;;;;;;35.90;18.70;;;;;;;4.56;100.00;98483.23;669558;1276;138949;-83
2023/01/30 14:00:34;;;;;;;24.80;13.90;;;;;;;4.59;100.00;98502.31;674194;1276;138524;-81
2023/01/30 14:15:51;;;;;;;29.10;16.30;;;;;;;4.58;100.00;98511.63;668701;1274;139014;-83
2023/01/30 14:31:02;;;;;;;34.60;13.90;;;;;;;4.64;100.00;98519.90;673107;1274;139143;-81
2023/01/30 14:46:18;;;;;;;21.10;10.90;;;;;;;4.58;100.00;98513.00;674276;1288;138774;-80
2023/01/30 15:01:22;;;;;;;17.90;8.30;;;;;;;4.71;100.00;98489.86;675385;1269;138684;-81
2023/01/30 15:16:32;;;;;;;25.40;10.70;;;;;;;4.66;100.00;98479.52;672762;1271;139549;-81
2023/01/30 15:31:35;;;;;;;43.80;18.30;;;;;;;4.55;100.00;98515.00;674006;1266;139493;-81
2023/01/30 15:47:12;;;;;;;21.90;9.90;;;;;;;4.53;100.00;98528.86;676478;1266;139216;-82
2023/01/30 16:02:27;;;;;;;19.20;10.40;;;;;;;4.54;100.00;98552.88;676447;1266;138810;-81
2023/01/30 16:17:31;;;;;;;20.10;8.50;;;;;;;4.37;100.00;98556.08;673559;1266;139125;-82
2023/01/30 16:32:35;;;;;;;20.30;9.60;;;;;;;4.29;100.00;98581.73;675326;1272;139626;-82
2023/01/30 16:47:39;;;;;;;44.30;15.70;;;;;;;4.31;100.00;98581.55;675578;1262;139245;-84
2023/01/30 17:02:50;;;;;;;46.00;19.90;;;;;;;4.31;100.00;98592.32;674220;1262;140238;-83
2023/01/30 17:17:53;;;;;;;82.50;24.80;;;;;;;4.37;100.00;98597.65;675758;1263;139582;-82
2023/01/30 17:32:56;;;;;;;50.10;17.90;;;;;;;4.45;100.00;98602.45;674063;1262;139593;-84
2023/01/30 17:48:00;;;;;;;101.70;34.10;;;;;;;4.39;100.00;98606.61;673548;1262;138975;-82
2023/01/30 18:03:04;;;;;;;53.70;19.00;;;;;;;4.37;100.00;98621.91;673892;1263;138930;-84
2023/01/30 18:18:11;;;;;;;19.20;8.70;;;;;;;4.33;100.00;98624.80;676162;1263;139324;-84
2023/01/30 18:33:14;;;;;;;33.80;12.80;;;;;;;4.37;100.00;98626.23;674679;1265;138915;-82
2023/01/30 18:48:18;;;;;;;28.30;14.20;;;;;;;4.48;100.00;98651.14;675692;1269;139764;-81
2023/01/30 19:03:22;;;;;;;40.70;14.80;;;;;;;4.50;100.00;98670.73;676919;1262;138890;-82
2023/01/30 19:18:30;;;;;;;21.50;10.10;;;;;;;4.54;100.00;98691.85;674068;1263;139098;-81
2023/01/30 19:33:34;;;;;;;33.30;10.80;;;;;;;4.64;100.00;98711.95;674913;1263;140106;-81
2023/01/30 19:48:38;;;;;;;19.40;7.10;;;;;;;4.68;100.00;98717.36;673965;1264;139168;-79
2023/01/30 20:03:42;;;;;;;43.10;20.50;;;;;;;4.70;100.00;98726.66;673713;1263;139142;-82
2023/01/30 20:18:53;;;;;;;36.00;16.00;;;;;;;4.68;100.00;98754.53;677051;1263;138819;-80
2023/01/30 20:33:59;;;;;;;27.70;14.80;;;;;;;4.65;100.00;98766.92;677713;1260;138348;-80
2023/01/30 20:49:02;;;;;;;60.60;14.10;;;;;;;4.63;100.00;98770.55;677055;1263;139576;-80
2023/01/30 21:04:08;;;;;;;28.20;10.80;;;;;;;4.66;100.00;98777.41;675145;1266;138889;-80
2023/01/30 21:19:15;;;;;;;98.80;29.10;;;;;;;4.61;100.00;98790.16;676615;1265;138627;-80
2023/01/30 21:34:18;;;;;;;18.20;9.30;;;;;;;4.60;100.00;98810.33;672143;1266;139588;-82
2023/01/30 21:49:24;;;;;;;62.80;17.00;;;;;;;4.66;100.00;98826.93;671004;1263;138203;-80
2023/01/30 22:04:27;;;;;;;44.20;10.20;;;;;;;4.66;100.00;98835.94;672502;1273;139262;-81
2023/01/30 22:19:34;;;;;;;65.50;18.00;;;;;;;4.73;100.00;98857.39;674801;1263;139678;-80
2023/01/30 22:47:53;;;;;;;39.90;9.70;;;;;;;4.64;100.00;98883.23;653736;1298;544825;-79
2023/01/30 23:02:57;;;;;;;21.50;7.10;;;;;;;4.66;100.00;98906.45;666744;1275;138308;-81
2023/01/30 23:33:25;;;;;;;23.80;6.70;;;;;;;4.53;100.00;98936.98;669411;1272;140398;-79
2023/01/30 23:48:28;;;;;;;26.30;10.30;;;;;;;4.50;100.00;98950.70;669000;1273;142046;-81
